createdAt,value
2023-08-13T00:00:25.286Z,15.21
2023-08-13T00:02:52.781Z,15.26
2023-08-13T00:05:20.593Z,15.30
2023-08-13T00:07:48.063Z,15.43
2023-08-13T00:10:15.559Z,15.38
2023-08-13T00:12:43.117Z,15.37
2023-08-13T00:15:12.768Z,15.27
2023-08-13T00:17:41.472Z,15.25
2023-08-13T00:20:10.740Z,15.18
2023-08-13T00:22:38.254Z,15.16
2023-08-13T00:25:06.804Z,15.26
2023-08-13T00:27:34.294Z,15.23
2023-08-13T00:30:01.771Z,15.25
2023-08-13T00:32:30.645Z,15.23
2023-08-13T00:34:58.177Z,15.23
2023-08-13T00:37:25.656Z,15.25
2023-08-13T00:39:53.128Z,15.29
2023-08-13T00:42:20.619Z,15.25
2023-08-13T00:44:48.167Z,15.25
2023-08-13T00:47:15.853Z,15.20
2023-08-13T00:49:44.883Z,15.05
2023-08-13T00:52:12.941Z,14.97
2023-08-13T00:54:40.820Z,15.06
2023-08-13T00:57:09.486Z,15.03
2023-08-13T00:59:37.203Z,14.96
2023-08-13T01:02:05.188Z,14.82
2023-08-13T01:04:32.732Z,14.83
2023-08-13T01:07:11.232Z,14.80
2023-08-13T01:09:45.591Z,14.84
2023-08-13T01:12:22.918Z,14.80
2023-08-13T01:14:57.868Z,14.77
2023-08-13T01:17:28.143Z,14.68
2023-08-13T01:19:55.904Z,14.55
2023-08-13T01:22:28.230Z,14.48
2023-08-13T01:24:56.076Z,14.41
2023-08-13T01:27:34.974Z,14.31
2023-08-13T01:30:09.060Z,14.27
2023-08-13T01:32:41.609Z,14.23
2023-08-13T01:35:11.420Z,14.22
2023-08-13T01:37:40.628Z,14.20
2023-08-13T01:40:09.307Z,14.19
2023-08-13T01:42:36.792Z,14.15
2023-08-13T01:45:04.772Z,14.22
2023-08-13T01:47:32.660Z,14.16
2023-08-13T01:50:00.186Z,14.06
2023-08-13T01:52:27.681Z,13.94
2023-08-13T01:54:56.535Z,13.87
2023-08-13T01:57:24.105Z,13.79
2023-08-13T01:59:51.628Z,13.75
2023-08-13T02:02:19.177Z,13.81
2023-08-13T02:04:46.693Z,13.78
2023-08-13T02:07:14.243Z,13.71
2023-08-13T02:09:41.838Z,13.63
2023-08-13T02:12:10.665Z,13.64
2023-08-13T02:14:38.149Z,13.57
2023-08-13T02:17:06.252Z,13.55
2023-08-13T02:19:33.766Z,13.65
2023-08-13T02:22:01.244Z,13.60
2023-08-13T02:24:29.757Z,13.38
2023-08-13T02:26:57.212Z,13.27
2023-08-13T02:29:26.290Z,13.20
2023-08-13T02:31:53.779Z,13.14
2023-08-13T02:34:21.247Z,13.11
2023-08-13T02:36:48.702Z,13.09
2023-08-13T02:39:16.259Z,13.01
2023-08-13T02:41:43.741Z,12.96
2023-08-13T02:44:11.255Z,12.90
2023-08-13T02:46:40.183Z,12.87
2023-08-13T02:49:07.803Z,12.87
2023-08-13T02:51:35.280Z,12.85
2023-08-13T02:54:02.793Z,12.82
2023-08-13T02:56:30.312Z,12.81
2023-08-13T02:58:57.782Z,12.74
2023-08-13T03:01:25.304Z,12.72
2023-08-13T03:03:54.990Z,12.72
2023-08-13T03:06:23.092Z,12.68
2023-08-13T03:08:50.697Z,12.63
2023-08-13T03:11:18.448Z,12.65
2023-08-13T03:13:46.233Z,12.59
2023-08-13T03:16:13.849Z,12.65
2023-08-13T03:18:42.402Z,12.59
2023-08-13T03:21:11.239Z,12.57
2023-08-13T03:23:38.752Z,12.57
2023-08-13T03:26:06.256Z,12.48
2023-08-13T03:28:33.746Z,12.52
2023-08-13T03:31:02.286Z,12.38
2023-08-13T03:33:29.792Z,12.38
2023-08-13T03:35:57.293Z,12.33
2023-08-13T03:38:26.141Z,12.35
2023-08-13T03:40:55.408Z,12.31
2023-08-13T03:43:23.019Z,12.30
2023-08-13T03:45:50.634Z,12.38
2023-08-13T03:48:18.187Z,12.38
2023-08-13T03:50:46.176Z,12.32
2023-08-13T03:53:13.830Z,12.24
2023-08-13T03:55:42.692Z,12.34
2023-08-13T03:58:10.272Z,12.36
2023-08-13T04:00:37.764Z,12.32
2023-08-13T04:03:19.562Z,12.32
2023-08-13T04:05:52.774Z,12.27
2023-08-13T04:08:20.306Z,12.28
2023-08-13T04:10:49.138Z,12.25
2023-08-13T04:13:16.623Z,12.21
2023-08-13T04:15:44.108Z,12.25
2023-08-13T04:18:11.597Z,12.13
2023-08-13T04:20:40.913Z,12.16
2023-08-13T04:23:08.658Z,12.14
2023-08-13T04:25:36.233Z,12.05
2023-08-13T04:28:05.482Z,12.03
2023-08-13T04:30:33.038Z,11.96
2023-08-13T04:33:00.568Z,11.96
2023-08-13T04:35:28.107Z,11.89
2023-08-13T04:37:55.621Z,11.79
2023-08-13T04:40:23.218Z,11.80
2023-08-13T04:42:50.669Z,11.74
2023-08-13T04:45:19.720Z,11.69
2023-08-13T04:47:47.234Z,11.62
2023-08-13T04:50:15.256Z,11.65
2023-08-13T04:52:42.744Z,11.69
2023-08-13T04:55:10.445Z,11.64
2023-08-13T04:57:37.955Z,11.59
2023-08-13T05:00:06.723Z,11.69
2023-08-13T05:02:36.163Z,11.75
2023-08-13T05:05:03.979Z,11.81
2023-08-13T05:07:31.529Z,11.90
2023-08-13T05:09:59.127Z,11.90
2023-08-13T05:12:26.686Z,11.98
2023-08-13T05:14:54.195Z,11.89
2023-08-13T05:17:23.044Z,11.95
2023-08-13T05:19:52.006Z,12.06
2023-08-13T05:22:19.836Z,12.13
2023-08-13T05:24:48.314Z,12.29
2023-08-13T05:27:16.114Z,12.47
2023-08-13T05:29:43.650Z,12.57
2023-08-13T05:32:11.176Z,12.69
2023-08-13T05:34:38.715Z,12.76
2023-08-13T05:37:07.707Z,12.77
2023-08-13T05:39:35.267Z,12.77
2023-08-13T05:42:02.738Z,12.82
2023-08-13T05:44:30.223Z,12.86
2023-08-13T05:46:57.744Z,12.88
2023-08-13T05:49:25.250Z,12.94
2023-08-13T05:51:52.825Z,13.00
2023-08-13T05:54:22.238Z,13.04
2023-08-13T05:56:50.146Z,13.09
2023-08-13T05:59:17.897Z,13.15
2023-08-13T06:01:45.402Z,13.23
2023-08-13T06:04:12.994Z,13.32
2023-08-13T06:06:40.509Z,13.46
2023-08-13T06:09:07.993Z,13.57
2023-08-13T06:11:36.805Z,13.67
2023-08-13T06:14:04.511Z,13.82
2023-08-13T06:16:32.074Z,13.84
2023-08-13T06:18:59.602Z,13.92
2023-08-13T06:21:27.164Z,14.02
2023-08-13T06:23:54.658Z,14.24
2023-08-13T06:26:22.160Z,14.33
2023-08-13T06:28:50.998Z,14.50
2023-08-13T06:31:36.512Z,14.56
2023-08-13T06:34:05.957Z,14.76
2023-08-13T06:36:33.469Z,14.95
2023-08-13T06:39:00.930Z,14.98
2023-08-13T06:41:28.433Z,15.10
2023-08-13T06:43:57.253Z,15.26
2023-08-13T06:46:24.858Z,15.33
2023-08-13T06:48:52.394Z,15.46
2023-08-13T06:51:19.859Z,15.57
2023-08-13T06:53:47.337Z,15.74
2023-08-13T06:56:14.811Z,15.89
2023-08-13T06:58:42.289Z,16.12
2023-08-13T07:01:11.811Z,16.34
2023-08-13T07:03:39.331Z,16.59
2023-08-13T07:06:06.856Z,16.78
2023-08-13T07:08:34.393Z,17.02
2023-08-13T07:11:01.871Z,17.22
2023-08-13T07:13:29.393Z,17.34
2023-08-13T07:15:56.962Z,17.40
2023-08-13T07:18:25.874Z,17.54
2023-08-13T07:20:53.479Z,17.72
2023-08-13T07:23:20.948Z,17.76
2023-08-13T07:25:48.436Z,17.87
2023-08-13T07:28:15.876Z,17.97
2023-08-13T07:30:44.171Z,18.07
2023-08-13T07:33:11.686Z,18.21
2023-08-13T07:35:42.016Z,18.25
2023-08-13T07:38:09.522Z,18.32
2023-08-13T07:40:37.211Z,18.44
2023-08-13T07:43:05.003Z,18.43
2023-08-13T07:45:32.642Z,18.65
2023-08-13T07:48:00.324Z,18.77
2023-08-13T07:50:27.926Z,18.83
2023-08-13T07:52:56.707Z,18.82
2023-08-13T07:55:24.447Z,18.79
2023-08-13T07:57:51.989Z,18.90
2023-08-13T08:00:19.693Z,18.84
2023-08-13T08:02:47.223Z,18.82
2023-08-13T08:05:14.788Z,18.96
2023-08-13T08:07:42.263Z,18.92
2023-08-13T08:10:11.338Z,18.69
2023-08-13T08:12:38.837Z,18.44
2023-08-13T08:15:07.168Z,18.77
2023-08-13T08:17:35.587Z,18.79
2023-08-13T08:20:03.957Z,18.57
2023-08-13T08:22:32.041Z,18.68
2023-08-13T08:24:59.505Z,18.90
2023-08-13T08:27:28.494Z,19.02
2023-08-13T08:29:56.044Z,18.95
2023-08-13T08:32:23.519Z,19.07
2023-08-13T08:34:51.123Z,19.10
2023-08-13T08:37:18.621Z,19.03
2023-08-13T08:39:46.111Z,19.03
2023-08-13T08:42:14.162Z,19.05
2023-08-13T08:44:44.664Z,19.00
2023-08-13T08:47:12.200Z,19.07
2023-08-13T08:49:39.752Z,19.17
2023-08-13T08:52:08.241Z,19.18
2023-08-13T08:54:40.737Z,19.18
2023-08-13T08:57:08.434Z,18.98
2023-08-13T08:59:36.450Z,19.22
2023-08-13T09:02:06.041Z,19.42
2023-08-13T09:04:33.528Z,19.67
2023-08-13T09:07:03.092Z,19.66
2023-08-13T09:09:31.789Z,19.74
2023-08-13T09:12:00.771Z,19.95
2023-08-13T09:14:28.800Z,19.73
2023-08-13T09:16:58.481Z,19.81
2023-08-13T09:19:28.589Z,19.88
2023-08-13T09:21:57.831Z,20.06
2023-08-13T09:24:34.418Z,20.09
2023-08-13T09:27:02.366Z,20.17
2023-08-13T09:29:31.213Z,20.05
2023-08-13T09:31:59.436Z,19.85
2023-08-13T09:34:29.324Z,19.92
2023-08-13T09:36:57.544Z,20.07
2023-08-13T09:39:25.570Z,20.04
2023-08-13T09:41:54.093Z,19.97
2023-08-13T09:44:25.361Z,19.88
2023-08-13T09:46:55.900Z,19.90
2023-08-13T09:49:24.335Z,20.01
2023-08-13T09:51:54.224Z,20.00
2023-08-13T09:54:30.714Z,19.83
2023-08-13T09:57:03.728Z,19.94
2023-08-13T09:59:33.963Z,19.91
2023-08-13T10:02:01.736Z,19.73
2023-08-13T10:04:30.741Z,19.80
2023-08-13T10:07:01.056Z,19.89
2023-08-13T10:09:28.753Z,19.87
2023-08-13T10:11:56.818Z,19.80
2023-08-13T10:14:24.718Z,19.90
2023-08-13T10:16:52.433Z,19.87
2023-08-13T10:19:20.763Z,20.00
2023-08-13T10:21:57.616Z,20.23
2023-08-13T10:24:30.173Z,20.23
2023-08-13T10:26:57.741Z,20.28
2023-08-13T10:29:26.022Z,20.58
2023-08-13T10:31:57.586Z,20.77
2023-08-13T10:34:40.614Z,20.77
2023-08-13T10:37:26.402Z,20.90
2023-08-13T10:40:09.439Z,20.63
2023-08-13T10:42:55.649Z,20.54
2023-08-13T10:45:25.730Z,20.61
2023-08-13T10:47:56.298Z,20.68
2023-08-13T10:50:28.031Z,20.69
2023-08-13T10:52:57.185Z,20.82
2023-08-13T10:55:26.589Z,21.05
2023-08-13T10:57:54.616Z,21.11
2023-08-13T11:00:24.844Z,21.30
2023-08-13T11:02:54.471Z,21.16
2023-08-13T11:05:23.465Z,21.03
2023-08-13T11:07:52.004Z,21.18
2023-08-13T11:10:21.372Z,21.10
2023-08-13T11:12:51.430Z,21.16
2023-08-13T11:15:19.250Z,20.94
2023-08-13T11:17:49.008Z,20.98
2023-08-13T11:20:19.515Z,21.02
2023-08-13T11:22:47.584Z,21.18
2023-08-13T11:25:15.576Z,21.17
2023-08-13T11:27:43.593Z,21.20
2023-08-13T11:30:13.670Z,21.12
2023-08-13T11:32:41.421Z,21.00
2023-08-13T11:35:11.022Z,21.00
2023-08-13T11:37:39.410Z,20.89
2023-08-13T11:40:11.750Z,20.86
2023-08-13T11:42:40.072Z,21.01
2023-08-13T11:45:15.594Z,21.26
2023-08-13T11:47:44.000Z,21.18
2023-08-13T11:50:20.013Z,21.03
2023-08-13T11:53:04.040Z,20.86
2023-08-13T11:55:31.765Z,20.82
2023-08-13T11:57:59.989Z,21.25
2023-08-13T12:00:28.920Z,21.08
2023-08-13T12:02:57.799Z,21.24
2023-08-13T12:05:27.409Z,21.50
2023-08-13T12:07:55.081Z,21.36
2023-08-13T12:10:22.753Z,21.29
2023-08-13T12:12:50.307Z,21.31
2023-08-13T12:15:22.703Z,21.48
2023-08-13T12:17:51.587Z,21.52
2023-08-13T12:20:19.131Z,21.83
2023-08-13T12:22:47.092Z,21.86
2023-08-13T12:25:14.578Z,21.66
2023-08-13T12:27:43.121Z,21.69
2023-08-13T12:30:12.352Z,21.60
2023-08-13T12:32:39.889Z,21.64
2023-08-13T12:35:10.693Z,21.52
2023-08-13T12:37:38.432Z,21.57
2023-08-13T12:40:10.016Z,21.70
2023-08-13T12:42:37.642Z,21.62
2023-08-13T12:45:07.008Z,21.93
2023-08-13T12:47:34.891Z,22.13
2023-08-13T12:50:02.613Z,22.10
2023-08-13T12:52:31.568Z,21.99
2023-08-13T12:54:59.113Z,22.01
2023-08-13T12:57:26.771Z,22.18
2023-08-13T12:59:54.882Z,21.98
2023-08-13T13:02:22.545Z,22.06
2023-08-13T13:04:50.258Z,22.33
2023-08-13T13:07:16.854Z,22.44
2023-08-13T13:09:47.501Z,22.37
2023-08-13T13:12:15.282Z,22.37
2023-08-13T13:14:42.906Z,22.44
2023-08-13T13:17:10.753Z,22.41
2023-08-13T13:19:38.967Z,22.26
2023-08-13T13:22:06.476Z,22.49
2023-08-13T13:24:34.201Z,22.53
2023-08-13T13:27:03.312Z,22.14
2023-08-13T13:29:30.872Z,22.07
2023-08-13T13:31:58.489Z,21.96
2023-08-13T13:34:26.022Z,21.99
2023-08-13T13:36:53.675Z,22.07
2023-08-13T13:39:21.195Z,22.01
2023-08-13T13:41:48.707Z,21.85
2023-08-13T13:44:17.624Z,21.69
2023-08-13T13:46:45.209Z,21.71
2023-08-13T13:49:12.756Z,21.85
2023-08-13T13:51:40.949Z,21.85
2023-08-13T13:54:08.452Z,21.71
2023-08-13T13:56:36.015Z,21.78
2023-08-13T13:59:04.133Z,22.04
2023-08-13T14:01:32.978Z,22.19
2023-08-13T14:04:00.715Z,22.25
2023-08-13T14:06:28.437Z,22.38
2023-08-13T14:08:55.932Z,22.42
2023-08-13T14:11:23.427Z,22.38
2023-08-13T14:13:50.948Z,22.51
2023-08-13T14:16:18.475Z,22.69
2023-08-13T14:18:47.339Z,23.00
2023-08-13T14:21:14.857Z,23.30
2023-08-13T14:23:42.393Z,23.51
2023-08-13T14:26:09.915Z,23.06
2023-08-13T14:28:37.478Z,23.07
2023-08-13T14:31:05.137Z,22.98
2023-08-13T14:33:32.641Z,23.16
2023-08-13T14:36:01.486Z,23.44
2023-08-13T14:38:29.018Z,23.73
2023-08-13T14:40:56.581Z,23.74
2023-08-13T14:43:24.090Z,23.62
2023-08-13T14:45:51.850Z,23.21
2023-08-13T14:48:19.438Z,22.70
2023-08-13T14:50:47.309Z,23.60
2023-08-13T14:53:16.253Z,24.30
2023-08-13T14:55:44.007Z,24.29
2023-08-13T14:58:11.556Z,24.07
2023-08-13T15:00:39.171Z,23.53
2023-08-13T15:03:06.773Z,23.39
2023-08-13T15:05:35.990Z,23.75
2023-08-13T15:08:03.694Z,24.01
2023-08-13T15:10:32.580Z,24.52
2023-08-13T15:13:00.083Z,25.02
2023-08-13T15:15:27.714Z,25.17
2023-08-13T15:17:55.249Z,25.07
2023-08-13T15:20:22.804Z,25.17
2023-08-13T15:22:50.682Z,25.53
2023-08-13T15:25:18.335Z,25.68
2023-08-13T15:27:47.182Z,26.02
2023-08-13T15:30:15.746Z,25.80
2023-08-13T15:32:43.498Z,25.24
2023-08-13T15:35:11.315Z,24.82
2023-08-13T15:37:39.461Z,23.83
2023-08-13T15:40:08.634Z,23.13
2023-08-13T15:42:36.677Z,23.35
2023-08-13T15:45:06.451Z,22.99
2023-08-13T15:47:34.061Z,23.13
2023-08-13T15:50:01.575Z,22.98
2023-08-13T15:52:29.192Z,22.99
2023-08-13T15:54:56.857Z,23.04
2023-08-13T15:57:24.442Z,23.54
2023-08-13T15:59:51.980Z,23.21
2023-08-13T16:02:20.836Z,23.05
2023-08-13T16:04:48.510Z,22.95
2023-08-13T16:07:16.866Z,23.21
2023-08-13T16:09:44.385Z,23.27
2023-08-13T16:12:11.924Z,22.93
2023-08-13T16:14:39.467Z,22.84
2023-08-13T16:17:07.112Z,22.76
2023-08-13T16:19:38.035Z,23.20
2023-08-13T16:22:05.814Z,23.42
2023-08-13T16:24:33.389Z,23.85
2023-08-13T16:27:02.244Z,23.72
2023-08-13T16:29:29.740Z,24.02
2023-08-13T16:31:59.246Z,23.94
2023-08-13T16:34:27.712Z,24.00
2023-08-13T16:36:56.549Z,23.99
2023-08-13T16:39:24.111Z,24.02
2023-08-13T16:41:51.615Z,24.38
2023-08-13T16:44:19.100Z,23.98
2023-08-13T16:46:46.605Z,23.63
2023-08-13T16:49:14.093Z,23.28
2023-08-13T16:51:41.599Z,22.73
2023-08-13T16:54:10.422Z,23.07
2023-08-13T16:56:37.967Z,23.75
2023-08-13T16:59:05.940Z,24.28
2023-08-13T17:01:33.587Z,24.23
2023-08-13T17:04:02.931Z,24.13
2023-08-13T17:06:30.633Z,23.98
2023-08-13T17:08:58.328Z,24.10
2023-08-13T17:11:27.139Z,24.51
2023-08-13T17:13:54.638Z,24.48
2023-08-13T17:16:22.158Z,24.15
2023-08-13T17:18:49.733Z,23.89
2023-08-13T17:21:17.738Z,23.86
2023-08-13T17:23:45.346Z,24.23
2023-08-13T17:26:12.855Z,24.32
2023-08-13T17:28:41.691Z,24.21
2023-08-13T17:31:09.203Z,23.86
2023-08-13T17:33:36.752Z,23.54
2023-08-13T17:36:04.637Z,23.30
2023-08-13T17:38:32.179Z,22.98
2023-08-13T17:40:59.727Z,22.64
2023-08-13T17:43:27.405Z,22.62
2023-08-13T17:45:56.391Z,22.69
2023-08-13T17:48:23.951Z,22.71
2023-08-13T17:50:51.605Z,22.81
2023-08-13T17:53:19.106Z,22.70
2023-08-13T17:55:46.613Z,22.73
2023-08-13T17:58:14.123Z,22.68
2023-08-13T18:00:41.627Z,22.38
2023-08-13T18:03:10.659Z,22.03
2023-08-13T18:05:38.317Z,21.85
2023-08-13T18:08:15.432Z,21.38
2023-08-13T18:10:43.628Z,21.27
2023-08-13T18:13:11.142Z,21.09
2023-08-13T18:15:38.721Z,20.96
2023-08-13T18:18:07.091Z,20.82
2023-08-13T18:20:36.000Z,20.65
2023-08-13T18:23:04.262Z,20.48
2023-08-13T18:25:32.118Z,20.36
2023-08-13T18:28:00.019Z,20.13
2023-08-13T18:30:27.516Z,20.00
2023-08-13T18:32:55.060Z,19.84
2023-08-13T18:35:22.581Z,19.63
2023-08-13T18:37:51.459Z,19.34
2023-08-13T18:40:19.151Z,19.20
2023-08-13T18:42:46.778Z,19.13
2023-08-13T18:45:14.322Z,19.07
2023-08-13T18:47:41.936Z,18.99
2023-08-13T18:50:10.594Z,19.01
2023-08-13T18:52:41.379Z,18.99
2023-08-13T18:55:11.151Z,18.96
2023-08-13T18:57:39.764Z,18.75
2023-08-13T19:00:08.997Z,18.74
2023-08-13T19:02:36.608Z,18.67
2023-08-13T19:05:04.243Z,18.53
2023-08-13T19:07:31.775Z,18.43
2023-08-13T19:09:59.298Z,18.37
2023-08-13T19:12:28.117Z,18.29
2023-08-13T19:14:57.453Z,18.25
2023-08-13T19:17:24.991Z,18.17
2023-08-13T19:19:52.619Z,17.91
2023-08-13T19:22:20.100Z,17.69
2023-08-13T19:24:47.612Z,17.62
2023-08-13T19:27:15.164Z,17.50
2023-08-13T19:29:44.141Z,17.35
2023-08-13T19:32:11.644Z,17.25
2023-08-13T19:34:39.571Z,17.20
2023-08-13T19:37:07.079Z,17.08
2023-08-13T19:39:35.619Z,17.03
2023-08-13T19:42:03.145Z,16.79
2023-08-13T19:44:37.784Z,16.27
2023-08-13T19:47:08.136Z,16.22
2023-08-13T19:49:35.710Z,16.12
2023-08-13T19:52:03.728Z,16.09
2023-08-13T19:54:31.287Z,16.05
2023-08-13T19:56:58.795Z,16.00
2023-08-13T19:59:26.280Z,15.89
2023-08-13T20:01:53.823Z,15.82
2023-08-13T20:04:22.689Z,15.76
2023-08-13T20:06:50.204Z,15.65
2023-08-13T20:09:17.733Z,15.63
2023-08-13T20:11:45.302Z,15.65
2023-08-13T20:14:12.847Z,15.61
2023-08-13T20:16:40.329Z,15.45
2023-08-13T20:19:07.889Z,15.33
2023-08-13T20:21:48.173Z,15.30
2023-08-13T20:24:16.129Z,15.23
2023-08-13T20:26:43.897Z,15.08
2023-08-13T20:29:13.961Z,15.10
2023-08-13T20:31:43.024Z,15.03
2023-08-13T20:34:11.104Z,14.87
2023-08-13T20:36:39.650Z,14.92
2023-08-13T20:39:09.910Z,14.75
2023-08-13T20:41:37.688Z,14.68
2023-08-13T20:44:05.898Z,14.50
2023-08-13T20:46:33.777Z,14.41
2023-08-13T20:49:05.240Z,14.44
2023-08-13T20:51:35.113Z,14.31
2023-08-13T20:54:02.698Z,14.16
2023-08-13T20:56:33.278Z,14.04
2023-08-13T20:59:00.780Z,13.98
2023-08-13T21:01:28.369Z,13.91
2023-08-13T21:03:56.020Z,13.97
2023-08-13T21:06:23.597Z,13.93
2023-08-13T21:08:51.101Z,13.89
2023-08-13T21:11:18.676Z,13.89
2023-08-13T21:13:47.523Z,13.84
2023-08-13T21:16:15.228Z,13.83
2023-08-13T21:18:42.774Z,13.77
2023-08-13T21:21:10.244Z,13.79
2023-08-13T21:23:37.721Z,13.69
2023-08-13T21:26:05.278Z,13.73
2023-08-13T21:28:32.754Z,13.66
2023-08-13T21:31:01.683Z,13.67
2023-08-13T21:33:29.271Z,13.60
2023-08-13T21:35:56.855Z,13.55
2023-08-13T21:38:24.361Z,13.56
2023-08-13T21:40:51.839Z,13.48
2023-08-13T21:43:19.409Z,13.41
2023-08-13T21:45:46.928Z,13.45
2023-08-13T21:48:15.860Z,13.34
2023-08-13T21:50:43.606Z,13.35
2023-08-13T21:53:11.238Z,13.32
2023-08-13T21:55:38.776Z,13.33
2023-08-13T21:58:06.273Z,13.29
2023-08-13T22:00:33.817Z,13.14
2023-08-13T22:03:01.369Z,13.05
2023-08-13T22:05:31.611Z,13.00
2023-08-13T22:07:59.214Z,12.97
2023-08-13T22:10:26.714Z,12.85
2023-08-13T22:12:54.191Z,12.94
2023-08-13T22:15:21.689Z,12.88
2023-08-13T22:17:49.212Z,12.80
2023-08-13T22:20:16.781Z,12.81
2023-08-13T22:22:45.697Z,12.72
2023-08-13T22:25:14.420Z,12.74
2023-08-13T22:27:41.941Z,12.69
2023-08-13T22:30:10.461Z,12.68
2023-08-13T22:32:38.799Z,12.63
2023-08-13T22:35:07.719Z,12.60
2023-08-13T22:37:35.516Z,12.56
2023-08-13T22:40:04.854Z,12.42
2023-08-13T22:42:32.375Z,12.16
2023-08-13T22:44:59.863Z,12.15
2023-08-13T22:47:27.409Z,12.26
2023-08-13T22:49:55.009Z,12.24
2023-08-13T22:52:22.513Z,12.27
2023-08-13T22:54:50.054Z,12.21
2023-08-13T22:57:18.982Z,12.18
2023-08-13T22:59:46.474Z,12.13
2023-08-13T23:02:13.993Z,12.16
2023-08-13T23:04:41.488Z,12.12
2023-08-13T23:07:09.053Z,12.16
2023-08-13T23:09:36.602Z,12.16
2023-08-13T23:12:04.887Z,12.03
2023-08-13T23:14:33.750Z,11.95
2023-08-13T23:17:01.594Z,12.07
2023-08-13T23:19:29.096Z,12.00
2023-08-13T23:21:56.603Z,11.97
2023-08-13T23:24:25.192Z,11.95
2023-08-13T23:26:52.933Z,11.90
2023-08-13T23:29:21.004Z,11.69
2023-08-13T23:31:50.324Z,11.69
2023-08-13T23:34:17.940Z,11.73
2023-08-13T23:36:45.633Z,11.70
2023-08-13T23:39:13.157Z,11.66
2023-08-13T23:41:41.956Z,11.62
2023-08-13T23:44:09.534Z,11.60
2023-08-13T23:46:37.284Z,11.37
2023-08-13T23:49:06.228Z,11.51
2023-08-13T23:51:33.741Z,11.52
2023-08-13T23:54:01.299Z,11.46
2023-08-13T23:56:28.957Z,11.43
2023-08-13T23:58:56.442Z,11.38
